createdAt,value
2022-08-26T06:53:13.883Z,22.02
2022-08-26T06:56:07.387Z,20.98
2022-08-26T06:58:55.846Z,21.45
2022-08-26T07:01:45.285Z,22.83
2022-08-26T07:04:33.208Z,20.08
2022-08-26T07:07:19.434Z,21.30
2022-08-26T07:10:08.782Z,25.85
2022-08-26T07:12:55.265Z,26.13
2022-08-26T07:15:42.461Z,20.70
2022-08-26T07:18:28.696Z,23.50
2022-08-26T07:21:17.269Z,24.73
2022-08-26T07:24:04.760Z,22.70
2022-08-26T07:26:50.823Z,21.15
2022-08-26T07:29:39.401Z,23.52
2022-08-26T07:32:25.777Z,21.27
2022-08-26T07:35:11.705Z,23.50
2022-08-26T07:37:58.065Z,26.05
2022-08-26T07:40:44.261Z,23.70
2022-08-26T07:43:30.941Z,18.00
2022-08-26T07:46:20.726Z,23.55
2022-08-26T07:49:13.161Z,19.23
2022-08-26T07:51:59.399Z,18.67
2022-08-26T07:54:45.728Z,21.48
2022-08-26T07:57:31.797Z,18.63
2022-08-26T08:00:18.248Z,21.13
2022-08-26T08:03:05.847Z,15.10
2022-08-26T08:05:51.907Z,13.35
2022-08-26T08:08:41.385Z,14.68
2022-08-26T08:11:30.860Z,13.13
2022-08-26T08:14:18.246Z,16.83
2022-08-26T08:17:08.391Z,15.38
2022-08-26T08:19:54.553Z,13.77
2022-08-26T08:22:42.515Z,12.98
2022-08-26T08:25:29.203Z,10.20
2022-08-26T08:28:16.233Z,9.95
2022-08-26T08:31:02.910Z,15.23
2022-08-26T08:33:49.850Z,12.73
2022-08-26T08:36:37.857Z,13.48
2022-08-26T08:39:28.015Z,14.07
2022-08-26T08:42:44.536Z,12.75
2022-08-26T08:46:00.446Z,12.90
2022-08-26T08:48:51.801Z,11.73
2022-08-26T08:51:43.914Z,9.45
2022-08-26T08:54:31.951Z,12.15
2022-08-26T08:57:40.639Z,10.60
2022-08-26T09:00:32.224Z,8.18
2022-08-26T09:03:57.152Z,10.27
2022-08-26T09:06:44.338Z,10.20
2022-08-26T09:09:37.714Z,13.20
2022-08-26T09:12:29.806Z,7.80
2022-08-26T09:15:33.223Z,11.68
2022-08-26T09:18:34.562Z,11.15
2022-08-26T09:21:23.529Z,8.00
2022-08-26T09:24:13.835Z,8.35
2022-08-26T09:27:00.696Z,7.07
2022-08-26T09:29:50.450Z,8.45
2022-08-26T09:32:39.321Z,7.68
2022-08-26T09:35:28.219Z,9.63
2022-08-26T09:38:28.223Z,7.28
2022-08-26T09:41:40.928Z,6.97
2022-08-26T09:44:27.168Z,6.07
2022-08-26T09:47:13.333Z,7.40
2022-08-26T09:50:12.380Z,6.70
2022-08-26T09:53:28.517Z,5.63
2022-08-26T09:56:27.536Z,8.35
2022-08-26T09:59:14.945Z,7.82
2022-08-26T10:02:47.829Z,7.68
2022-08-26T10:05:45.957Z,7.30
2022-08-26T10:08:42.078Z,6.43
2022-08-26T10:11:53.408Z,6.55
2022-08-26T10:17:48.522Z,6.13
2022-08-26T10:20:41.803Z,10.52
2022-08-26T10:23:37.894Z,10.55
2022-08-26T10:26:30.259Z,7.82
2022-08-26T10:29:23.237Z,9.88
2022-08-26T10:32:24.567Z,6.90
2022-08-26T10:35:13.579Z,8.82
2022-08-26T10:38:04.661Z,9.13
2022-08-26T10:41:09.975Z,10.18
2022-08-26T10:43:59.921Z,6.28
2022-08-26T10:46:51.369Z,11.15
2022-08-26T10:49:39.734Z,6.15
2022-08-26T10:53:19.554Z,9.27
2022-08-26T10:56:20.655Z,6.95
2022-08-26T10:59:31.473Z,7.45
2022-08-26T11:02:40.789Z,7.55
2022-08-26T11:05:33.914Z,10.27
2022-08-26T11:08:20.813Z,8.10
2022-08-26T11:11:08.286Z,5.63
2022-08-26T11:13:57.204Z,9.27
2022-08-26T11:16:51.941Z,4.95
2022-08-26T11:19:59.372Z,5.47
2022-08-26T11:22:47.918Z,8.25
2022-08-26T11:25:54.284Z,7.63
2022-08-26T11:28:49.524Z,7.40
2022-08-26T11:31:38.831Z,7.85
2022-08-26T11:34:54.090Z,7.55
2022-08-26T11:37:42.693Z,8.25
2022-08-26T11:40:33.264Z,5.82
2022-08-26T11:43:23.942Z,7.75
2022-08-26T11:46:12.844Z,7.05
2022-08-26T11:49:06.420Z,5.70
2022-08-26T11:51:55.724Z,10.73
2022-08-26T11:55:09.157Z,8.30
2022-08-26T11:58:00.849Z,9.52
2022-08-26T12:00:52.699Z,6.10
2022-08-26T12:03:45.699Z,4.65
2022-08-26T12:09:34.884Z,6.45
2022-08-26T12:12:35.167Z,5.68
2022-08-26T12:15:22.920Z,9.00
2022-08-26T12:18:29.698Z,5.85
2022-08-26T12:21:22.680Z,6.18
2022-08-26T12:24:10.346Z,7.53
2022-08-26T12:27:17.272Z,6.47
2022-08-26T12:30:23.202Z,6.28
2022-08-26T12:33:22.336Z,6.15
2022-08-26T12:36:10.044Z,8.45
2022-08-26T12:38:58.317Z,8.30
2022-08-26T12:41:54.698Z,9.32
2022-08-26T12:45:06.564Z,5.25
2022-08-26T12:47:55.858Z,7.55
2022-08-26T12:50:49.208Z,8.18
2022-08-26T12:53:43.015Z,9.63
2022-08-26T12:56:39.534Z,7.97
2022-08-26T12:59:26.163Z,8.75
2022-08-26T13:02:35.857Z,4.68
2022-08-26T13:05:35.439Z,7.10
2022-08-26T13:08:28.400Z,6.72
2022-08-26T13:11:18.926Z,6.60
2022-08-26T13:14:11.121Z,5.10
2022-08-26T13:16:57.428Z,5.97
2022-08-26T13:19:43.646Z,5.90
2022-08-26T13:22:30.038Z,7.13
2022-08-26T13:25:16.761Z,7.53
2022-08-26T13:28:06.110Z,7.47
2022-08-26T13:30:51.970Z,6.28
2022-08-26T13:33:38.895Z,5.70
2022-08-26T13:36:25.544Z,9.55
2022-08-26T13:39:12.744Z,5.68
2022-08-26T13:41:58.982Z,6.00
2022-08-26T13:44:47.701Z,7.65
2022-08-26T13:47:33.916Z,8.68
2022-08-26T13:50:19.678Z,7.45
2022-08-26T13:53:05.645Z,5.03
2022-08-26T13:55:51.676Z,3.97
2022-08-26T13:58:37.628Z,7.78
2022-08-26T14:01:24.265Z,5.90
2022-08-26T14:04:10.450Z,5.05
2022-08-26T14:06:56.633Z,5.07
2022-08-26T14:09:42.759Z,5.13
2022-08-26T14:12:29.255Z,8.90
2022-08-26T14:15:17.913Z,5.50
2022-08-26T14:18:06.808Z,4.63
2022-08-26T14:20:55.671Z,5.70
2022-08-26T14:23:41.881Z,5.78
2022-08-26T14:26:29.799Z,6.95
2022-08-26T14:29:16.874Z,12.68
2022-08-26T14:32:11.340Z,4.28
2022-08-26T14:34:57.677Z,5.85
2022-08-26T14:37:43.950Z,6.55
2022-08-26T14:40:31.967Z,4.30
2022-08-26T14:43:19.938Z,6.03
2022-08-26T14:46:05.822Z,4.32
2022-08-26T14:48:51.712Z,6.78
2022-08-26T14:51:40.950Z,6.35
2022-08-26T14:54:30.110Z,6.65
2022-08-26T14:57:16.431Z,6.68
2022-08-26T15:00:07.432Z,7.47
2022-08-26T15:02:53.635Z,4.90
2022-08-26T15:05:48.012Z,5.53
2022-08-26T15:08:36.621Z,4.60
2022-08-26T15:11:22.779Z,7.55
2022-08-26T15:14:14.798Z,7.18
2022-08-26T15:17:06.563Z,7.97
2022-08-26T15:19:52.664Z,5.68
2022-08-26T15:22:39.689Z,5.32
2022-08-26T15:25:25.920Z,6.28
2022-08-26T15:28:12.254Z,6.25
2022-08-26T15:30:58.553Z,4.35
2022-08-26T15:33:47.119Z,5.88
2022-08-26T15:36:34.164Z,6.13
2022-08-26T15:39:20.951Z,4.25
2022-08-26T15:42:07.240Z,6.70
2022-08-26T15:44:53.541Z,3.60
2022-08-26T15:47:55.414Z,8.43
2022-08-26T15:50:57.463Z,12.75
2022-08-26T15:53:43.683Z,5.00
2022-08-26T15:56:36.253Z,4.65
2022-08-26T15:59:22.701Z,7.22
2022-08-26T16:02:09.550Z,8.32
2022-08-26T16:04:55.731Z,3.97
2022-08-26T16:07:43.473Z,5.18
2022-08-26T16:10:31.023Z,11.30
2022-08-26T16:13:18.849Z,7.22
2022-08-26T16:16:05.534Z,11.05
2022-08-26T16:18:52.460Z,6.90
2022-08-26T16:21:39.910Z,5.85
2022-08-26T16:24:30.231Z,6.32
2022-08-26T16:27:16.908Z,8.10
2022-08-26T16:30:06.028Z,5.70
2022-08-26T16:32:52.224Z,5.57
2022-08-26T16:35:39.207Z,7.15
2022-08-26T16:38:25.351Z,6.32
2022-08-26T16:41:11.310Z,7.88
2022-08-26T16:43:58.705Z,5.18
2022-08-26T16:46:45.681Z,4.53
2022-08-26T16:49:32.105Z,7.63
2022-08-26T16:52:18.720Z,5.45
2022-08-26T16:55:07.396Z,7.10
2022-08-26T16:57:55.466Z,8.63
2022-08-26T17:00:41.914Z,5.20
2022-08-26T17:03:28.118Z,7.35
2022-08-26T17:06:14.165Z,12.70
2022-08-26T17:09:00.126Z,4.03
2022-08-26T17:11:46.513Z,5.25
2022-08-26T17:14:33.516Z,6.20
2022-08-26T17:17:19.662Z,6.25
2022-08-26T17:20:09.692Z,5.25
2022-08-26T17:22:56.616Z,5.35
2022-08-26T17:25:43.097Z,6.25
2022-08-26T17:28:29.490Z,5.13
2022-08-26T17:31:16.159Z,6.35
2022-08-26T17:34:02.193Z,4.97
2022-08-26T17:36:48.316Z,7.75
2022-08-26T17:39:37.083Z,8.13
2022-08-26T17:42:23.413Z,4.60
2022-08-26T17:45:21.735Z,4.95
2022-08-26T17:48:08.445Z,7.38
2022-08-26T17:50:54.838Z,4.43
2022-08-26T17:53:41.686Z,9.20
2022-08-26T17:56:29.392Z,7.88
2022-08-26T17:59:15.547Z,6.55
2022-08-26T18:02:01.909Z,5.53
2022-08-26T18:04:48.620Z,6.88
2022-08-26T18:07:34.982Z,7.82
2022-08-26T18:10:31.304Z,8.13
2022-08-26T18:13:18.790Z,10.52
2022-08-26T18:16:06.657Z,7.35
2022-08-26T18:18:53.703Z,4.93
2022-08-26T18:21:39.916Z,4.45
2022-08-26T18:24:28.595Z,7.30
2022-08-26T18:27:14.892Z,10.57
2022-08-26T18:30:01.547Z,6.90
2022-08-26T18:32:49.354Z,11.15
2022-08-26T18:35:43.572Z,4.47
2022-08-26T18:38:29.978Z,5.28
2022-08-26T18:41:21.460Z,5.40
2022-08-26T18:44:13.308Z,4.80
2022-08-26T18:47:00.013Z,6.43
2022-08-26T18:49:47.757Z,5.80
2022-08-26T18:52:34.054Z,4.55
2022-08-26T18:55:20.175Z,5.70
2022-08-26T18:58:06.658Z,7.05
2022-08-26T19:00:52.986Z,8.40
2022-08-26T19:03:39.416Z,8.48
2022-08-26T19:06:26.955Z,8.68
2022-08-26T19:09:14.786Z,6.03
2022-08-26T19:12:05.124Z,6.75
2022-08-26T19:14:51.560Z,7.90
2022-08-26T19:17:37.881Z,6.57
2022-08-26T19:20:24.615Z,8.15
2022-08-26T19:23:30.447Z,7.97
2022-08-26T19:26:18.643Z,7.20
2022-08-26T19:29:05.082Z,11.18
2022-08-26T19:31:51.580Z,8.35
2022-08-26T19:34:37.673Z,6.55
2022-08-26T19:37:23.919Z,8.93
2022-08-26T19:40:10.757Z,6.13
2022-08-26T19:43:00.070Z,5.90
2022-08-26T19:45:46.225Z,7.03
2022-08-26T19:48:32.559Z,8.02
2022-08-26T19:51:25.372Z,8.52
2022-08-26T19:54:11.406Z,5.83
2022-08-26T19:56:57.730Z,9.50
2022-08-26T19:59:44.594Z,7.22
2022-08-26T20:02:30.748Z,7.63
2022-08-26T20:05:20.440Z,6.53
2022-08-26T20:08:06.437Z,7.70
2022-08-26T20:10:52.659Z,6.50
2022-08-26T20:13:39.828Z,11.40
2022-08-26T20:16:26.387Z,8.43
2022-08-26T20:19:34.330Z,8.65
2022-08-26T20:22:23.303Z,8.50
2022-08-26T20:25:10.140Z,6.72
2022-08-26T20:27:56.385Z,5.53
2022-08-26T20:30:42.534Z,7.22
2022-08-26T20:33:29.083Z,5.75
2022-08-26T20:36:15.549Z,8.25
2022-08-26T20:39:01.651Z,9.80
2022-08-26T20:41:47.830Z,5.80
2022-08-26T20:44:34.289Z,5.60
2022-08-26T20:47:20.411Z,7.05
2022-08-26T20:50:08.056Z,8.05
2022-08-26T20:52:54.091Z,8.55
2022-08-26T20:55:40.364Z,9.30
2022-08-26T20:58:26.558Z,7.00
2022-08-26T21:01:22.438Z,7.55
2022-08-26T21:04:11.619Z,7.45
2022-08-26T21:06:58.313Z,6.38
2022-08-26T21:09:44.835Z,5.20
2022-08-26T21:12:31.738Z,6.90
2022-08-26T21:15:18.536Z,7.28
2022-08-26T21:18:04.897Z,5.88
2022-08-26T21:20:51.724Z,5.53
2022-08-26T21:23:38.615Z,8.77
2022-08-26T21:26:25.367Z,4.88
2022-08-26T21:29:13.485Z,7.20
2022-08-26T21:31:59.436Z,7.00
2022-08-26T21:34:45.624Z,8.20
2022-08-26T21:37:31.677Z,9.23
2022-08-26T21:40:18.371Z,12.20
2022-08-26T21:43:05.016Z,6.68
2022-08-26T21:45:51.511Z,6.85
2022-08-26T21:48:39.220Z,8.35
2022-08-26T21:51:28.167Z,7.38
2022-08-26T21:54:15.305Z,6.47
2022-08-26T21:57:01.955Z,9.25
2022-08-26T21:59:48.367Z,8.60
2022-08-26T22:02:34.965Z,7.50
2022-08-26T22:05:24.158Z,9.13
2022-08-26T22:08:10.625Z,8.60
2022-08-26T22:10:57.665Z,10.18
2022-08-26T22:13:44.120Z,8.75
2022-08-26T22:16:30.241Z,8.93
2022-08-26T22:19:17.256Z,9.60
2022-08-26T22:22:03.656Z,7.90
2022-08-26T22:24:50.333Z,11.77
2022-08-26T22:27:40.549Z,10.35
2022-08-26T22:30:29.355Z,10.82
2022-08-26T22:33:16.805Z,9.48
2022-08-26T22:36:03.303Z,8.07
2022-08-26T22:38:50.825Z,10.07
2022-08-26T22:41:37.133Z,7.45
2022-08-26T22:44:23.876Z,6.63
2022-08-26T22:47:10.087Z,6.82
2022-08-26T22:49:58.056Z,14.07
2022-08-26T22:52:44.260Z,9.30
2022-08-26T22:55:30.373Z,9.30
2022-08-26T22:58:18.087Z,8.48
2022-08-26T23:01:06.031Z,7.30
2022-08-26T23:03:52.316Z,7.95
2022-08-26T23:06:43.029Z,8.05
2022-08-26T23:09:29.197Z,8.07
2022-08-26T23:12:15.042Z,7.30
2022-08-26T23:15:01.729Z,8.48
2022-08-26T23:17:53.583Z,11.32
2022-08-26T23:20:44.891Z,11.52
2022-08-26T23:23:31.233Z,7.97
2022-08-26T23:26:17.879Z,11.73
2022-08-26T23:29:05.741Z,8.63
2022-08-26T23:31:52.642Z,9.00
2022-08-26T23:34:57.030Z,10.68
2022-08-26T23:37:45.014Z,9.85
2022-08-26T23:40:34.920Z,9.23
2022-08-26T23:43:21.093Z,16.88
2022-08-26T23:46:07.381Z,7.57
2022-08-26T23:48:53.442Z,9.02
2022-08-26T23:51:58.270Z,13.40
2022-08-26T23:54:45.258Z,7.38
2022-08-26T23:57:32.706Z,10.93
